createdAt,value
2022-10-14T00:04:29.939Z,1.10
2022-10-14T00:09:50.899Z,1.60
2022-10-14T00:15:11.665Z,1.45
2022-10-14T00:20:32.524Z,1.70
2022-10-14T00:25:54.233Z,1.70
2022-10-14T00:31:16.448Z,0.70
2022-10-14T00:36:40.972Z,0.70
2022-10-14T00:42:09.972Z,1.10
2022-10-14T00:47:31.157Z,0.85
2022-10-14T00:52:52.267Z,0.60
2022-10-14T00:58:12.776Z,0.70
2022-10-14T01:03:33.991Z,1.00
2022-10-14T01:09:04.691Z,0.68
2022-10-14T01:14:32.952Z,0.45
2022-10-14T01:20:23.590Z,0.88
2022-10-14T01:26:06.569Z,0.55
2022-10-14T01:31:32.635Z,0.77
2022-10-14T01:36:58.705Z,0.65
2022-10-14T01:42:25.337Z,1.05
2022-10-14T01:47:50.243Z,0.80
2022-10-14T01:53:16.879Z,1.00
2022-10-14T01:58:39.449Z,1.08
2022-10-14T02:04:00.382Z,1.15
2022-10-14T02:09:55.434Z,0.98
2022-10-14T02:15:49.423Z,1.27
2022-10-14T02:21:20.039Z,1.73
2022-10-14T02:27:05.796Z,3.10
2022-10-14T02:32:28.256Z,1.90
2022-10-14T02:37:51.034Z,1.30
2022-10-14T02:43:12.369Z,1.60
2022-10-14T02:48:33.394Z,2.63
2022-10-14T02:53:53.933Z,1.50
2022-10-14T02:59:15.343Z,1.33
2022-10-14T03:04:36.541Z,1.55
2022-10-14T03:09:58.367Z,1.83
2022-10-14T03:15:19.094Z,1.15
2022-10-14T03:20:44.780Z,1.17
2022-10-14T03:26:11.780Z,1.35
2022-10-14T03:31:38.038Z,2.13
2022-10-14T03:37:16.480Z,1.65
2022-10-14T03:42:43.105Z,1.30
2022-10-14T03:48:04.080Z,1.23
2022-10-14T03:53:24.577Z,1.45
2022-10-14T03:58:45.914Z,1.38
2022-10-14T04:04:08.408Z,1.30
2022-10-14T04:09:30.542Z,1.60
2022-10-14T04:14:51.604Z,1.52
2022-10-14T04:20:12.489Z,1.20
2022-10-14T04:25:58.292Z,1.67
2022-10-14T04:31:19.275Z,1.50
2022-10-14T04:36:54.671Z,1.42
2022-10-14T04:42:32.680Z,1.38
2022-10-14T04:47:57.479Z,1.90
2022-10-14T04:53:22.455Z,1.55
2022-10-14T04:58:56.746Z,1.20
2022-10-14T05:04:28.493Z,1.20
2022-10-14T05:09:55.456Z,1.38
2022-10-14T05:21:00.497Z,1.33
2022-10-14T05:26:34.633Z,2.20
2022-10-14T05:31:59.396Z,1.73
2022-10-14T05:37:39.333Z,1.85
2022-10-14T05:43:00.064Z,1.33
2022-10-14T05:48:21.629Z,1.77
2022-10-14T05:53:43.604Z,1.92
2022-10-14T05:59:10.958Z,2.33
2022-10-14T06:04:31.817Z,1.42
2022-10-14T06:09:52.437Z,1.60
2022-10-14T06:15:14.195Z,1.33
2022-10-14T06:20:35.145Z,2.45
2022-10-14T06:25:55.926Z,1.80
2022-10-14T06:31:16.758Z,1.30
2022-10-14T06:36:37.935Z,1.73
2022-10-14T06:41:58.685Z,2.00
2022-10-14T06:47:18.943Z,1.50
2022-10-14T06:52:39.764Z,1.33
2022-10-14T06:58:00.482Z,1.85
2022-10-14T07:03:21.136Z,1.60
2022-10-14T07:08:42.611Z,1.55
2022-10-14T07:14:03.434Z,1.48
2022-10-14T07:19:24.033Z,1.30
2022-10-14T07:24:44.906Z,1.83
2022-10-14T07:30:06.023Z,1.83
2022-10-14T07:35:29.229Z,1.77
2022-10-14T07:41:05.072Z,2.10
2022-10-14T07:46:29.739Z,1.83
2022-10-14T07:51:50.161Z,1.60
2022-10-14T07:57:11.481Z,1.58
2022-10-14T08:02:32.176Z,1.55
2022-10-14T08:07:52.844Z,1.80
2022-10-14T08:13:13.184Z,1.55
2022-10-14T08:18:34.570Z,1.63
2022-10-14T08:23:55.294Z,1.38
2022-10-14T08:29:16.364Z,1.30
2022-10-14T08:34:36.726Z,1.25
2022-10-14T08:39:57.054Z,1.58
2022-10-14T08:45:29.440Z,1.50
2022-10-14T08:51:18.402Z,1.30
2022-10-14T08:56:40.208Z,1.90
2022-10-14T09:02:16.064Z,1.65
2022-10-14T09:07:37.166Z,1.67
2022-10-14T09:13:06.115Z,1.40
2022-10-14T09:18:41.243Z,1.90
2022-10-14T09:29:30.736Z,1.95
2022-10-14T09:34:52.274Z,2.25
2022-10-14T09:40:12.457Z,1.88
2022-10-14T09:46:07.945Z,1.92
2022-10-14T09:51:32.926Z,2.10
2022-10-14T09:57:07.917Z,1.50
2022-10-14T10:02:48.357Z,1.40
2022-10-14T10:08:18.328Z,1.48
2022-10-14T10:13:45.280Z,1.70
2022-10-14T10:19:28.692Z,1.67
2022-10-14T10:24:52.477Z,1.70
2022-10-14T10:30:17.936Z,2.35
2022-10-14T10:35:55.865Z,1.98
2022-10-14T10:41:44.913Z,1.45
2022-10-14T10:47:12.775Z,1.92
2022-10-14T10:53:11.093Z,1.60
2022-10-14T10:59:03.175Z,2.00
2022-10-14T11:04:35.484Z,2.30
2022-10-14T11:10:29.095Z,2.80
2022-10-14T11:16:00.350Z,3.10
2022-10-14T11:21:35.657Z,2.70
2022-10-14T11:27:19.693Z,2.47
2022-10-14T11:33:37.461Z,3.13
2022-10-14T11:39:45.513Z,3.30
2022-10-14T11:50:53.290Z,3.55
2022-10-14T11:56:25.400Z,3.97
2022-10-14T12:01:52.109Z,5.57
2022-10-14T12:07:18.815Z,3.80
2022-10-14T12:12:42.951Z,2.15
2022-10-14T12:18:05.277Z,2.22
2022-10-14T12:23:33.974Z,2.22
2022-10-14T12:28:55.446Z,2.17
2022-10-14T12:34:28.996Z,1.85
2022-10-14T12:39:54.583Z,2.70
2022-10-14T12:45:26.744Z,2.42
2022-10-14T12:50:49.676Z,2.70
2022-10-14T12:56:11.297Z,2.25
2022-10-14T13:01:35.300Z,2.28
2022-10-14T13:07:41.420Z,2.22
2022-10-14T13:13:00.446Z,1.73
2022-10-14T13:18:38.467Z,2.38
2022-10-14T13:24:02.800Z,2.30
2022-10-14T13:29:30.248Z,2.30
2022-10-14T13:35:02.626Z,1.98
2022-10-14T13:40:28.944Z,2.33
2022-10-14T13:46:05.804Z,2.72
2022-10-14T13:51:41.167Z,3.13
2022-10-14T13:57:47.892Z,3.15
2022-10-14T14:03:03.032Z,2.70
2022-10-14T14:08:46.537Z,3.20
2022-10-14T14:14:20.400Z,3.40
2022-10-14T14:19:48.429Z,2.97
2022-10-14T14:25:40.262Z,3.80
2022-10-14T14:30:56.159Z,3.90
2022-10-14T14:36:27.722Z,5.18
2022-10-14T14:41:57.949Z,6.00
2022-10-14T14:47:18.970Z,6.18
2022-10-14T14:52:41.258Z,5.10
2022-10-14T14:58:06.804Z,5.47
2022-10-14T15:03:30.967Z,7.20
2022-10-14T15:08:55.329Z,7.15
2022-10-14T15:14:29.784Z,6.70
2022-10-14T15:19:50.607Z,7.20
2022-10-14T15:25:12.627Z,6.70
2022-10-14T15:30:39.138Z,6.30
2022-10-14T15:36:02.114Z,7.43
2022-10-14T15:41:22.500Z,7.65
2022-10-14T15:47:03.436Z,6.95
2022-10-14T15:52:26.976Z,7.35
2022-10-14T15:57:49.760Z,8.70
2022-10-14T16:03:10.691Z,7.78
2022-10-14T16:08:31.016Z,9.00
2022-10-14T16:13:51.556Z,8.27
2022-10-14T16:19:12.514Z,8.82
2022-10-14T16:24:33.197Z,9.15
2022-10-14T16:35:18.312Z,8.90
2022-10-14T16:40:39.105Z,11.23
2022-10-14T16:46:03.585Z,11.05
2022-10-14T16:51:23.918Z,11.05
2022-10-14T16:56:53.910Z,11.57
2022-10-14T17:02:16.563Z,11.07
2022-10-14T17:07:37.067Z,12.15
2022-10-14T17:12:57.804Z,13.10
2022-10-14T17:18:18.967Z,13.00
2022-10-14T17:23:43.198Z,13.70
2022-10-14T17:29:03.661Z,13.18
2022-10-14T17:34:24.074Z,13.10
2022-10-14T17:39:44.862Z,14.13
2022-10-14T17:45:05.712Z,13.50
2022-10-14T17:50:27.975Z,15.63
2022-10-14T17:55:48.289Z,14.68
2022-10-14T18:01:14.282Z,15.15
2022-10-14T18:06:35.899Z,15.23
2022-10-14T18:12:12.985Z,18.17
2022-10-14T18:17:33.693Z,17.92
2022-10-14T18:22:54.237Z,17.08
2022-10-14T18:28:14.631Z,18.00
2022-10-14T18:33:36.964Z,19.65
2022-10-14T18:39:00.431Z,18.65
2022-10-14T18:44:21.263Z,17.50
2022-10-14T18:49:41.623Z,18.15
2022-10-14T18:55:02.296Z,17.73
2022-10-14T19:00:22.836Z,17.50
2022-10-14T19:05:44.143Z,20.15
2022-10-14T19:11:07.214Z,22.20
2022-10-14T19:16:29.632Z,21.55
2022-10-14T19:21:50.996Z,24.58
2022-10-14T19:27:11.995Z,23.30
2022-10-14T19:32:32.580Z,24.10
2022-10-14T19:37:55.786Z,24.65
2022-10-14T19:43:16.367Z,24.60
2022-10-14T19:48:37.371Z,24.13
2022-10-14T19:53:58.419Z,23.02
2022-10-14T19:59:19.115Z,22.30
2022-10-14T20:04:39.398Z,23.95
2022-10-14T20:10:02.618Z,23.40
2022-10-14T20:15:23.483Z,21.08
2022-10-14T20:20:44.109Z,19.67
2022-10-14T20:26:15.791Z,20.45
2022-10-14T20:31:36.411Z,20.35
2022-10-14T20:36:56.699Z,19.95
2022-10-14T20:42:17.418Z,17.55
2022-10-14T20:47:38.165Z,20.27
2022-10-14T20:52:59.608Z,19.95
2022-10-14T20:58:20.914Z,18.50
2022-10-14T21:03:42.760Z,19.58
2022-10-14T21:09:03.735Z,18.10
2022-10-14T21:14:24.294Z,20.25
2022-10-14T21:19:45.400Z,19.13
2022-10-14T21:25:05.912Z,19.25
2022-10-14T21:30:26.426Z,19.30
2022-10-14T21:35:47.078Z,20.92
2022-10-14T21:41:08.526Z,20.55
2022-10-14T21:46:29.003Z,21.73
2022-10-14T21:51:50.070Z,21.15
2022-10-14T21:57:10.557Z,19.90
2022-10-14T22:02:31.485Z,20.13
2022-10-14T22:07:51.773Z,21.02
2022-10-14T22:13:12.514Z,18.67
2022-10-14T22:18:32.955Z,21.45
2022-10-14T22:23:53.859Z,19.13
2022-10-14T22:29:16.340Z,19.77
2022-10-14T22:34:36.809Z,18.30
2022-10-14T22:39:57.267Z,15.25
2022-10-14T22:45:17.802Z,14.98
2022-10-14T22:50:38.622Z,13.05
2022-10-14T22:55:59.340Z,12.98
2022-10-14T23:01:21.592Z,11.45
2022-10-14T23:06:44.810Z,11.25
2022-10-14T23:12:05.598Z,11.55
2022-10-14T23:17:26.364Z,10.15
2022-10-14T23:22:46.840Z,11.90
2022-10-14T23:28:07.503Z,12.45
2022-10-14T23:33:28.222Z,11.40
2022-10-14T23:38:49.621Z,11.77
2022-10-14T23:44:11.939Z,12.60
2022-10-14T23:49:32.472Z,11.20
2022-10-14T23:54:53.440Z,10.63
